Time;durP1;ratioP1;P1;durP2;ratioP2;P2;SDS_P1;SDS_P2;PMS_P1;PMS_P2;Temp;Humidity;BMP_temperature;BMP_pressure;BME280_temperature;BME280_humidity;BME280_pressure;Samples;Min_cycle;Max_cycle;Signal;HPM_P1;HPM_P2
2023/06/14 00:00:20;;;;;;;12.70;3.45;;;;;;;22.13;64.64;99639.06;1752779;81;21687;-83
2023/06/14 00:03:25;;;;;;;7.03;3.00;;;;;;;22.27;64.19;99638.03;1754090;82;21269;-82
2023/06/14 00:06:30;;;;;;;7.58;3.45;;;;;;;22.14;64.56;99642.96;1753338;82;21206;-81
2023/06/14 00:09:37;;;;;;;10.65;3.80;;;;;;;22.11;64.76;99642.62;1754121;82;21807;-82
2023/06/14 00:12:44;;;;;;;12.88;3.52;;;;;;;22.08;65.02;99641.78;1753875;82;21400;-82
2023/06/14 00:15:49;;;;;;;7.35;3.40;;;;;;;21.99;65.16;99642.83;1752742;82;21763;-81
2023/06/14 00:18:56;;;;;;;7.70;3.47;;;;;;;22.02;64.97;99633.09;1753988;82;21253;-83
2023/06/14 00:22:01;;;;;;;8.73;3.08;;;;;;;22.20;64.48;99634.91;1752579;82;21186;-83
2023/06/14 00:25:08;;;;;;;9.80;3.67;;;;;;;22.26;64.41;99635.81;1752735;82;21297;-80
2023/06/14 00:28:15;;;;;;;10.93;3.83;;;;;;;22.45;63.77;99637.58;1752023;82;21846;-83
2023/06/14 00:31:21;;;;;;;5.83;3.15;;;;;;;22.49;63.53;99637.33;1751850;82;21302;-83
2023/06/14 00:34:26;;;;;;;10.70;3.33;;;;;;;21.91;65.30;99633.58;1753900;82;21258;-82
2023/06/14 00:37:31;;;;;;;7.65;3.72;;;;;;;21.66;66.50;99632.28;1753618;82;21771;-81
2023/06/14 00:40:36;;;;;;;10.28;3.47;;;;;;;21.82;66.19;99634.62;1752686;82;21313;-81
2023/06/14 00:43:42;;;;;;;6.55;3.27;;;;;;;21.85;66.09;99632.70;1753496;82;21278;-82
2023/06/14 00:46:51;;;;;;;6.60;3.37;;;;;;;22.05;65.45;99638.13;1752972;82;21206;-81
2023/06/14 00:49:58;;;;;;;8.50;3.42;;;;;;;21.87;66.07;99636.60;1754168;82;21286;-81
2023/06/14 00:53:04;;;;;;;6.50;3.70;;;;;;;21.83;65.80;99641.02;1754263;82;21242;-83
2023/06/14 00:56:13;;;;;;;7.03;3.35;;;;;;;21.86;66.22;99639.11;1753487;82;21286;-83
2023/06/14 00:59:17;;;;;;;7.45;3.27;;;;;;;22.15;65.32;99632.09;1753751;82;21293;-80
2023/06/14 01:02:22;;;;;;;13.13;3.30;;;;;;;22.15;65.59;99627.92;1754340;82;21238;-82
2023/06/14 01:05:21;;;;;;;7.90;3.45;;;;;;;22.19;65.83;99633.23;1752616;82;21167;-82
2023/06/14 01:08:46;;;;;;;8.28;3.55;;;;;;;22.08;66.03;99625.07;1753248;82;21858;-82
2023/06/14 01:12:10;;;;;;;6.05;3.12;;;;;;;21.92;66.50;99626.89;1754174;82;21827;-81
2023/06/14 01:15:16;;;;;;;6.53;3.65;;;;;;;21.78;67.17;99629.30;1754172;82;21301;-81
2023/06/14 01:18:21;;;;;;;6.92;3.75;;;;;;;21.51;68.38;99618.80;1753481;82;21298;-81
2023/06/14 01:21:41;;;;;;;11.35;4.12;;;;;;;21.60;68.26;99621.38;1753545;82;21209;-82
2023/06/14 01:24:34;;;;;;;11.40;4.08;;;;;;;21.40;69.11;99618.68;1754858;82;21246;-81
2023/06/14 01:27:29;;;;;;;8.83;3.98;;;;;;;21.53;68.86;99623.53;1753296;82;21203;-81
2023/06/14 01:30:14;;;;;;;8.30;3.98;;;;;;;21.41;69.22;99617.59;1753205;82;21202;-81
2023/06/14 01:33:13;;;;;;;8.95;3.50;;;;;;;21.68;68.08;99622.26;1751559;82;21735;-79
2023/06/14 01:36:20;;;;;;;7.10;3.50;;;;;;;21.72;67.86;99617.84;1753297;82;21178;-81
2023/06/14 01:39:26;;;;;;;8.30;3.70;;;;;;;21.62;67.93;99613.03;1753393;82;21783;-81
2023/06/14 01:42:33;;;;;;;8.00;4.28;;;;;;;21.49;68.31;99614.86;1754779;82;21791;-81
2023/06/14 01:45:38;;;;;;;12.10;3.60;;;;;;;21.39;68.65;99614.78;1753668;82;21155;-82
2023/06/14 01:48:44;;;;;;;12.28;4.08;;;;;;;21.16;69.55;99612.58;1752938;82;21183;-81
2023/06/14 01:51:51;;;;;;;10.75;4.35;;;;;;;21.47;68.40;99619.03;1753289;82;21198;-81
2023/06/14 01:54:57;;;;;;;13.85;3.67;;;;;;;21.42;68.31;99611.48;1754430;82;21257;-81
2023/06/14 01:58:03;;;;;;;8.90;3.72;;;;;;;21.61;67.74;99614.70;1754218;82;21289;-82
2023/06/14 02:01:09;;;;;;;10.85;3.90;;;;;;;21.80;66.74;99620.70;1753240;82;21314;-81
2023/06/14 02:04:14;;;;;;;6.70;3.67;;;;;;;21.68;66.99;99620.87;1752912;82;21174;-79
2023/06/14 02:07:19;;;;;;;16.45;3.67;;;;;;;21.49;67.69;99619.59;1754230;82;21298;-81
2023/06/14 02:10:26;;;;;;;13.28;3.65;;;;;;;21.55;67.40;99623.56;1754031;82;21297;-81
2023/06/14 02:13:34;;;;;;;8.63;3.70;;;;;;;21.39;67.76;99621.17;1754258;82;21269;-82
2023/06/14 02:16:48;;;;;;;12.13;4.28;;;;;;;21.51;67.48;99624.36;1753444;82;21159;-80
2023/06/14 02:19:50;;;;;;;10.15;3.62;;;;;;;21.25;68.54;99618.51;1753202;82;21302;-80
2023/06/14 02:22:56;;;;;;;6.85;4.25;;;;;;;21.51;67.79;99624.36;1754198;82;21814;-83
2023/06/14 02:26:02;;;;;;;10.23;3.85;;;;;;;21.29;68.40;99621.61;1752824;82;21779;-82
2023/06/14 02:29:14;;;;;;;10.43;4.12;;;;;;;21.36;68.40;99624.51;1753030;82;21257;-80
2023/06/14 02:32:18;;;;;;;;;;;;;;;21.44;68.10;99628.73;1757048;82;21254;-84
2023/06/14 02:35:27;;;;;;;10.90;4.00;;;;;;;21.42;68.12;99627.62;1722823;83;20661;-82
2023/06/14 02:38:33;;;;;;;13.28;4.12;;;;;;;21.30;68.69;99628.29;1721905;83;21847;-81
2023/06/14 02:41:39;;;;;;;19.98;3.77;;;;;;;21.42;68.60;99628.17;1721911;83;21310;-82
2023/06/14 02:44:33;;;;;;;6.75;3.55;;;;;;;21.26;69.21;99640.20;1723163;83;21310;-80
2023/06/14 02:47:39;;;;;;;11.78;3.47;;;;;;;21.34;69.24;99636.98;1723083;83;21815;-81
2023/06/14 02:50:46;;;;;;;9.85;3.87;;;;;;;20.98;70.15;99632.40;1721747;83;21337;-82
2023/06/14 02:53:52;;;;;;;13.58;3.98;;;;;;;21.05;70.40;99644.72;1722925;83;21306;-82
2023/06/14 02:56:58;;;;;;;11.22;3.70;;;;;;;21.31;69.53;99642.51;1721743;83;21329;-81
2023/06/14 03:00:05;;;;;;;5.90;4.08;;;;;;;21.23;69.65;99637.97;1722642;83;21294;-81
2023/06/14 03:03:12;;;;;;;13.00;4.30;;;;;;;21.11;70.09;99636.16;1723656;83;21898;-80
2023/06/14 03:06:13;;;;;;;12.88;4.60;;;;;;;21.27;69.67;99641.35;1722345;83;21354;-80
2023/06/14 03:09:20;;;;;;;10.90;4.20;;;;;;;21.37;69.56;99639.25;1721766;83;21645;-81
2023/06/14 03:12:26;;;;;;;16.80;4.05;;;;;;;21.44;69.62;99644.03;1722548;83;21294;-81
2023/06/14 03:15:33;;;;;;;9.98;4.75;;;;;;;21.43;69.53;99640.42;1722859;83;21308;-81
2023/06/14 03:18:39;;;;;;;9.30;3.45;;;;;;;21.57;68.66;99639.43;1723224;83;21325;-82
2023/06/14 03:21:47;;;;;;;10.23;4.78;;;;;;;21.32;69.19;99642.83;1722080;83;21910;-82
2023/06/14 03:24:53;;;;;;;18.50;4.85;;;;;;;21.49;68.77;99644.63;1722916;83;21338;-82
2023/06/14 03:28:00;;;;;;;9.85;4.55;;;;;;;21.50;68.81;99651.34;1723123;83;21855;-82
2023/06/14 03:31:06;;;;;;;11.40;4.97;;;;;;;21.46;68.69;99655.76;1721914;83;21298;-81
2023/06/14 03:34:11;;;;;;;12.43;4.22;;;;;;;21.29;69.40;99648.87;1724398;81;21298;-81
2023/06/14 03:37:18;;;;;;;12.30;4.30;;;;;;;21.36;69.36;99652.84;1722986;83;21848;-81
2023/06/14 03:40:26;;;;;;;10.53;5.12;;;;;;;21.01;70.29;99647.73;1700753;83;21306;-80
2023/06/14 03:43:31;;;;;;;12.63;4.65;;;;;;;21.04;70.74;99649.45;1723179;83;21290;-81
2023/06/14 03:46:36;;;;;;;9.25;4.50;;;;;;;21.13;70.46;99650.66;1723089;83;21275;-81
2023/06/14 03:49:41;;;;;;;10.30;5.70;;;;;;;21.05;70.89;99649.73;1723173;83;21866;-81
2023/06/14 03:52:48;;;;;;;7.08;4.33;;;;;;;21.37;69.66;99650.37;1723072;83;21755;-80
2023/06/14 03:55:57;;;;;;;11.08;4.37;;;;;;;21.39;69.64;99650.94;1722450;83;21326;-80
2023/06/14 03:59:04;;;;;;;14.90;4.90;;;;;;;21.51;69.45;99654.97;1723280;83;21270;-82
2023/06/14 04:02:11;;;;;;;12.53;5.17;;;;;;;21.14;70.32;99661.23;1722141;83;21285;-81
2023/06/14 04:05:19;;;;;;;10.15;4.58;;;;;;;21.27;70.00;99656.65;1722761;83;21906;-81
2023/06/14 04:08:25;;;;;;;10.85;4.60;;;;;;;21.22;70.10;99656.59;1723081;83;21282;-82
2023/06/14 04:11:31;;;;;;;11.80;5.28;;;;;;;;;;1722031;83;21321;-80
2023/06/14 04:14:37;;;;;;;9.90;4.75;;;;;;;21.75;68.18;99655.45;1722965;83;21282;-82
2023/06/14 04:17:42;;;;;;;7.55;4.47;;;;;;;21.82;67.67;99654.10;1722417;83;21318;-82
2023/06/14 04:20:48;;;;;;;10.95;4.30;;;;;;;21.77;67.88;99656.02;1722537;83;21314;-81
2023/06/14 04:23:55;;;;;;;9.15;4.45;;;;;;;21.68;67.31;99659.83;1723209;83;21941;-81
2023/06/14 04:27:01;;;;;;;21.77;5.33;;;;;;;21.43;68.48;99654.33;1721938;83;21365;-82
2023/06/14 04:30:02;;;;;;;8.05;4.25;;;;;;;21.54;68.35;99650.24;1723236;83;21436;-80
2023/06/14 04:32:56;;;;;;;10.95;4.83;;;;;;;21.53;68.58;99656.36;1723345;83;21334;-82
2023/06/14 04:36:02;;;;;;;15.00;4.90;;;;;;;21.86;68.62;99653.86;1724436;82;21793;-81
2023/06/14 04:39:06;;;;;;;10.75;5.17;;;;;;;21.86;68.62;99653.86;1723306;83;22049;-81
2023/06/14 04:42:14;;;;;;;8.95;4.85;;;;;;;22.06;67.29;99650.94;1723462;83;21302;-82
2023/06/14 04:45:19;;;;;;;7.83;5.03;;;;;;;22.20;66.59;99647.45;1723340;83;21306;-83
2023/06/14 04:48:24;;;;;;;10.05;5.17;;;;;;;22.30;65.64;99641.66;1723158;83;21339;-82
2023/06/14 04:51:29;;;;;;;12.23;5.05;;;;;;;22.08;65.87;99650.97;1722854;83;21322;-82
2023/06/14 04:54:36;;;;;;;11.38;5.17;;;;;;;22.19;65.43;99642.98;1722993;83;21283;-82
2023/06/14 04:57:41;;;;;;;7.95;4.60;;;;;;;22.12;65.67;99647.14;1723200;83;21295;-82
2023/06/14 05:00:48;;;;;;;12.13;4.90;;;;;;;22.22;65.43;99649.15;1722707;83;21334;-82
2023/06/14 05:03:53;;;;;;;11.10;4.35;;;;;;;22.23;65.12;99648.87;1722285;83;21852;-82
2023/06/14 05:06:58;;;;;;;12.47;5.20;;;;;;;22.20;65.95;99649.39;1722070;83;21333;-80
2023/06/14 05:13:21;;;;;;;10.23;4.45;;;;;;;22.29;65.00;99648.34;1721750;83;21346;-82
2023/06/14 05:16:29;;;;;;;17.73;5.08;;;;;;;22.16;65.03;99649.12;1722169;83;21638;-82
2023/06/14 05:19:35;;;;;;;8.93;4.65;;;;;;;22.55;63.55;99645.98;1721783;83;21910;-80
2023/06/14 05:22:41;;;;;;;14.80;5.60;;;;;;;22.28;64.93;99646.11;1721967;83;21302;-81
2023/06/14 05:25:47;;;;;;;20.43;5.05;;;;;;;22.23;65.27;99648.87;1722810;83;21309;-82
2023/06/14 05:28:53;;;;;;;18.07;5.22;;;;;;;22.36;64.70;99651.74;1723243;83;21771;-80
2023/06/14 05:31:59;;;;;;;18.37;5.47;;;;;;;22.63;63.86;99646.00;1721704;83;21858;-80
2023/06/14 05:35:04;;;;;;;10.18;5.12;;;;;;;22.58;64.23;99644.03;1722939;83;21306;-82
2023/06/14 05:38:10;;;;;;;11.90;5.12;;;;;;;22.73;63.38;99646.64;1708777;82;21312;-83
2023/06/14 05:41:16;;;;;;;9.38;5.20;;;;;;;22.95;63.03;99647.28;1693517;84;21331;-82
2023/06/14 05:44:22;;;;;;;11.25;5.08;;;;;;;23.00;61.96;99655.66;1694230;84;21917;-82
2023/06/14 05:47:28;;;;;;;12.45;5.05;;;;;;;23.13;62.37;99660.73;1694698;84;21304;-80
2023/06/14 05:50:34;;;;;;;16.90;5.10;;;;;;;23.37;61.59;99663.02;1694808;84;21319;-80
2023/06/14 05:53:40;;;;;;;9.68;4.58;;;;;;;23.51;60.82;99663.32;1692232;84;21293;-83
2023/06/14 05:56:47;;;;;;;13.48;4.47;;;;;;;23.56;59.48;99666.95;1694612;84;21314;-83
2023/06/14 05:59:53;;;;;;;8.05;4.67;;;;;;;23.51;59.22;99665.55;1708256;83;21254;-80
2023/06/14 06:03:01;;;;;;;13.18;4.87;;;;;;;23.57;59.92;99666.39;1718471;83;21815;-82
2023/06/14 06:06:08;;;;;;;9.40;4.47;;;;;;;23.58;59.71;99663.34;1720839;83;21353;-80
2023/06/14 06:09:19;;;;;;;8.13;4.53;;;;;;;23.93;59.04;99668.67;1708232;83;21291;-83
2023/06/14 06:12:22;;;;;;;11.78;5.08;;;;;;;24.09;59.56;99670.36;1712712;83;21894;-79
2023/06/14 06:15:28;;;;;;;12.18;4.60;;;;;;;24.46;58.41;99662.19;1719737;83;21342;-82
2023/06/14 06:18:35;;;;;;;13.32;4.70;;;;;;;24.65;57.27;99661.85;1703081;83;21306;-81
2023/06/14 06:21:42;;;;;;;9.53;4.90;;;;;;;24.52;57.49;99659.69;1694346;84;21310;-81
2023/06/14 06:24:47;;;;;;;8.68;3.87;;;;;;;24.59;56.71;99665.80;1702076;83;21271;-81
2023/06/14 06:27:53;;;;;;;6.92;3.95;;;;;;;24.49;57.24;99663.03;1720385;83;21270;-80
2023/06/14 06:31:00;;;;;;;9.85;4.95;;;;;;;24.74;57.07;99665.73;1700909;83;21322;-80
2023/06/14 06:34:01;;;;;;;9.40;4.58;;;;;;;24.73;55.49;99671.05;1692354;83;21292;-83
2023/06/14 06:37:07;;;;;;;11.35;5.15;;;;;;;24.84;55.01;99662.09;1702247;83;21393;-83
2023/06/14 06:40:14;;;;;;;13.50;5.97;;;;;;;24.95;54.47;99658.67;1723657;82;21338;-81
2023/06/14 06:43:21;;;;;;;10.58;5.37;;;;;;;24.74;55.00;99652.31;1722124;83;21306;-84
2023/06/14 06:46:26;;;;;;;11.00;4.67;;;;;;;24.64;55.59;99650.40;1722893;83;21322;-84
2023/06/14 06:49:31;;;;;;;23.70;6.85;;;;;;;24.50;55.66;99650.73;1723394;83;21318;-80
2023/06/14 06:52:37;;;;;;;15.65;6.35;;;;;;;24.72;55.87;99656.81;1722312;83;21318;-80
2023/06/14 06:55:44;;;;;;;18.75;6.22;;;;;;;24.89;54.98;99662.59;1707912;83;21900;-80
2023/06/14 06:58:50;;;;;;;19.42;6.97;;;;;;;24.65;55.31;99640.88;1709357;83;21290;-80
2023/06/14 07:01:57;;;;;;;21.80;7.30;;;;;;;24.73;55.92;99641.70;1721423;83;21913;-83
2023/06/14 07:05:04;;;;;;;24.87;6.65;;;;;;;24.88;55.15;99651.14;1702721;83;21346;-79
2023/06/14 07:08:10;;;;;;;13.72;6.70;;;;;;;25.18;53.40;99649.63;1651653;87;21270;-80
2023/06/14 07:11:16;;;;;;;19.55;6.83;;;;;;;25.14;53.63;99656.92;1694394;83;21301;-82
2023/06/14 07:14:22;;;;;;;17.35;6.90;;;;;;;25.40;53.77;99651.16;1696559;84;21310;-80
2023/06/14 07:17:27;;;;;;;17.30;6.53;;;;;;;25.55;53.46;99662.81;1652175;87;21321;-84
2023/06/14 07:20:33;;;;;;;19.30;5.90;;;;;;;25.97;51.66;99658.02;1679190;85;21318;-83
2023/06/14 07:23:39;;;;;;;20.70;6.20;;;;;;;25.88;52.09;99661.22;1680525;85;21337;-83
2023/06/14 07:26:46;;;;;;;14.25;5.12;;;;;;;26.05;51.03;99661.59;1691931;84;21336;-81
2023/06/14 07:29:51;;;;;;;15.90;5.72;;;;;;;26.43;50.32;99673.03;1693169;84;21291;-84
2023/06/14 07:32:58;;;;;;;18.42;5.92;;;;;;;26.49;49.33;99664.85;1663253;85;21306;-81
2023/06/14 07:36:05;;;;;;;21.75;4.97;;;;;;;26.57;49.84;99665.58;1679752;85;21870;-81
2023/06/14 07:39:11;;;;;;;14.50;5.50;;;;;;;26.75;50.88;99660.59;1678717;85;21298;-81
2023/06/14 07:42:15;;;;;;;17.57;5.50;;;;;;;26.98;50.06;99676.31;1700120;84;21313;-84
2023/06/14 07:45:24;;;;;;;18.65;5.25;;;;;;;27.14;48.29;99674.16;1704671;84;21337;-80
2023/06/14 07:48:30;;;;;;;19.57;7.10;;;;;;;26.97;47.37;99683.08;1699257;84;21299;-81
2023/06/14 07:51:37;;;;;;;19.80;6.22;;;;;;;26.68;48.11;99675.56;1698608;84;21301;-83
2023/06/14 07:54:43;;;;;;;13.98;6.08;;;;;;;26.73;49.17;99675.50;1704837;84;21310;-81
2023/06/14 07:57:42;;;;;;;18.57;6.20;;;;;;;26.73;48.03;99676.08;1704806;84;21337;-83
2023/06/14 08:00:49;;;;;;;18.02;6.90;;;;;;;27.06;47.68;99685.48;1704070;84;21350;-83
2023/06/14 08:03:55;;;;;;;12.98;6.33;;;;;;;26.96;47.16;99679.97;1704727;84;21330;-80
2023/06/14 08:07:01;;;;;;;19.95;5.25;;;;;;;26.90;47.87;99675.57;1705383;84;21354;-83
2023/06/14 08:13:26;;;;;;;22.77;5.92;;;;;;;26.30;48.97;99668.95;1849771;76;22753;-81
2023/06/14 08:16:33;;;;;;;15.03;6.17;;;;;;;26.04;49.90;99661.91;1819878;78;21283;-81
2023/06/14 08:19:38;;;;;;;17.15;6.80;;;;;;;26.13;48.84;99673.58;1800902;79;21280;-81
2023/06/14 08:22:46;;;;;;;24.23;6.15;;;;;;;26.13;48.68;99672.75;1822161;78;21296;-84
2023/06/14 08:25:52;;;;;;;22.45;6.92;;;;;;;26.38;48.99;99657.63;1751737;81;21358;-84
2023/06/14 08:28:59;;;;;;;23.57;7.72;;;;;;;26.49;48.48;99653.06;1767967;81;21268;-84
2023/06/14 08:32:05;;;;;;;14.90;4.60;;;;;;;26.50;48.11;99660.91;1772906;80;21319;-84
2023/06/14 08:35:10;;;;;;;13.55;4.47;;;;;;;26.27;48.42;99653.28;1744202;82;21346;-81
2023/06/14 08:38:15;;;;;;;19.98;5.20;;;;;;;26.31;48.03;99658.56;1744415;81;21282;-84
2023/06/14 08:41:25;;;;;;;18.55;5.25;;;;;;;26.37;47.83;99666.61;1743662;82;21313;-84
2023/06/14 08:44:29;;;;;;;17.80;5.00;;;;;;;26.39;48.43;99664.91;1744711;81;21289;-83
2023/06/14 08:47:36;;;;;;;26.45;5.10;;;;;;;26.19;48.57;99668.76;1744497;81;21301;-83
2023/06/14 08:50:37;;;;;;;16.60;4.55;;;;;;;26.17;47.64;99662.62;1744243;82;22012;-84
2023/06/14 08:53:31;;;;;;;13.28;4.50;;;;;;;26.24;48.25;99665.90;1777053;80;21308;-81
2023/06/14 08:56:16;;;;;;;17.75;4.22;;;;;;;26.31;47.95;99666.97;1753320;81;21919;-81
2023/06/14 08:59:08;;;;;;;17.92;4.70;;;;;;;26.54;48.17;99661.98;1757735;81;21276;-80
2023/06/14 09:01:55;;;;;;;11.85;4.62;;;;;;;26.91;48.05;99669.68;1717452;81;21300;-84
2023/06/14 09:04:59;;;;;;;16.80;4.10;;;;;;;27.04;47.73;99671.47;1744068;82;21842;-84
2023/06/14 09:07:36;;;;;;;12.65;4.90;;;;;;;27.37;47.26;99670.47;1752600;80;21827;-84
2023/06/14 09:10:44;;;;;;;11.33;4.00;;;;;;;27.56;46.17;99673.27;1747123;80;21337;-84
2023/06/14 09:13:49;;;;;;;17.17;4.72;;;;;;;27.80;45.68;99676.02;1729553;82;21332;-83
2023/06/14 09:16:55;;;;;;;18.45;4.60;;;;;;;27.87;46.07;99667.22;1746127;82;21346;-81
2023/06/14 09:20:05;;;;;;;24.12;5.80;;;;;;;27.99;44.90;99662.76;1747751;82;21319;-80
2023/06/14 09:23:11;;;;;;;9.78;4.55;;;;;;;27.91;45.78;99666.87;1693996;84;21268;-81
2023/06/14 09:26:24;;;;;;;10.32;4.15;;;;;;;27.75;46.04;99669.08;1716667;81;21333;-81
2023/06/14 09:29:31;;;;;;;14.35;5.62;;;;;;;27.70;45.98;99660.13;1744094;81;21308;-84
2023/06/14 09:32:38;;;;;;;16.75;5.67;;;;;;;27.71;45.99;99666.58;1738648;82;21323;-84
2023/06/14 09:35:45;;;;;;;14.47;5.50;;;;;;;27.53;46.15;99659.86;1718160;82;21338;-85
2023/06/14 09:39:08;;;;;;;16.42;5.80;;;;;;;27.65;46.53;99670.62;1738783;82;21932;-84
2023/06/14 09:42:15;;;;;;;20.17;6.53;;;;;;;27.91;45.74;99666.30;1738877;81;21672;-84
2023/06/14 09:45:07;;;;;;;19.75;6.33;;;;;;;27.64;45.31;99674.00;1738889;81;21317;-84
2023/06/14 09:47:53;;;;;;;21.75;7.35;;;;;;;27.74;45.12;99658.41;1738868;82;21301;-84
2023/06/14 09:50:48;;;;;;;14.33;6.53;;;;;;;27.80;45.41;99661.13;1739267;81;21287;-84
2023/06/14 09:53:36;;;;;;;22.87;5.28;;;;;;;27.79;45.64;99670.71;1743151;82;21321;-81
2023/06/14 09:56:37;;;;;;;17.75;5.97;;;;;;;27.60;45.63;99665.91;1741424;82;21339;-82
2023/06/14 09:59:45;;;;;;;19.12;5.97;;;;;;;27.65;45.57;99665.83;1738926;81;21333;-82
2023/06/14 10:02:53;;;;;;;11.90;5.70;;;;;;;27.85;46.58;99666.67;1737660;82;21281;-84
2023/06/14 10:06:01;;;;;;;22.45;6.60;;;;;;;27.87;45.55;99662.42;1737842;81;22028;-84
2023/06/14 10:09:07;;;;;;;16.30;5.97;;;;;;;27.95;45.59;99660.91;1767500;81;21275;-81
2023/06/14 10:12:20;;;;;;;18.57;5.78;;;;;;;27.97;45.34;99658.61;1769448;81;21917;-85
2023/06/14 10:15:39;;;;;;;13.08;5.25;;;;;;;28.18;45.59;99650.09;1727215;82;21350;-84
2023/06/14 10:19:01;;;;;;;14.65;4.70;;;;;;;28.22;44.87;99652.52;1794093;79;21925;-81
2023/06/14 10:22:19;;;;;;;18.48;4.58;;;;;;;28.00;45.09;99653.78;1781364;79;21777;-81
2023/06/14 10:25:37;;;;;;;11.73;4.20;;;;;;;28.25;45.19;99651.91;1800882;79;21915;-81
2023/06/14 10:28:45;;;;;;;13.85;5.00;;;;;;;28.12;45.76;99655.52;1786768;79;21321;-83
2023/06/14 10:31:54;;;;;;;16.80;5.17;;;;;;;28.16;45.05;99659.39;1785416;80;21299;-81
2023/06/14 10:35:08;;;;;;;15.40;5.15;;;;;;;28.03;45.10;99653.15;1786728;80;21289;-81
2023/06/14 10:38:20;;;;;;;23.77;4.62;;;;;;;28.02;45.90;99654.30;1793498;79;21240;-81
2023/06/14 10:41:28;;;;;;;10.95;4.47;;;;;;;28.18;45.46;99657.66;1805905;79;21361;-83
2023/06/14 10:44:41;;;;;;;15.78;5.47;;;;;;;28.18;44.75;99651.49;1791900;79;21304;-83
2023/06/14 10:47:48;;;;;;;27.45;7.10;;;;;;;27.97;45.02;99650.17;1787847;80;21272;-81
2023/06/14 10:50:55;;;;;;;13.85;4.08;;;;;;;28.07;44.62;99635.94;1787172;79;21588;-81
2023/06/14 10:54:01;;;;;;;10.20;4.67;;;;;;;28.03;45.68;99639.09;1772235;80;21307;-83
2023/06/14 10:57:07;;;;;;;12.28;4.90;;;;;;;27.95;45.53;99645.45;1773639;80;21328;-81
2023/06/14 11:00:15;;;;;;;18.30;5.85;;;;;;;27.84;45.61;99642.52;1772340;80;21292;-80
2023/06/14 11:03:56;;;;;;;14.33;5.87;;;;;;;27.92;45.67;99638.45;1787519;80;21276;-83
2023/06/14 11:07:00;;;;;;;19.67;6.95;;;;;;;27.99;45.69;99650.69;1786245;79;21296;-84
2023/06/14 11:10:48;;;;;;;15.15;5.75;;;;;;;28.01;45.76;99645.03;1787265;80;21288;-82
2023/06/14 11:13:55;;;;;;;13.00;4.78;;;;;;;28.09;45.13;99642.10;1786823;79;22233;-81
2023/06/14 11:17:04;;;;;;;22.02;6.03;;;;;;;28.27;44.67;99648.78;1793089;79;21263;-84
2023/06/14 11:20:20;;;;;;;22.30;7.30;;;;;;;28.42;44.76;99665.96;1800165;79;21161;-81
2023/06/14 11:23:26;;;;;;;24.65;5.70;;;;;;;28.11;44.92;99648.81;1749882;81;21264;-81
2023/06/14 11:26:38;;;;;;;16.52;5.60;;;;;;;28.19;45.36;99651.75;1791272;79;21309;-83
2023/06/14 11:29:44;;;;;;;13.60;5.75;;;;;;;28.06;44.93;99662.95;1786657;80;21318;-82
2023/06/14 11:32:55;;;;;;;12.18;5.50;;;;;;;28.08;44.82;99657.84;1787268;80;21209;-81
2023/06/14 11:36:01;;;;;;;16.90;5.97;;;;;;;28.03;45.33;99655.39;1786113;80;21694;-81
2023/06/14 11:39:15;;;;;;;16.65;5.47;;;;;;;28.07;45.41;99649.16;1858447;76;22201;-84
2023/06/14 11:42:24;;;;;;;11.95;5.65;;;;;;;28.06;45.16;99659.57;1722482;83;21335;-82
2023/06/14 11:45:23;;;;;;;21.52;6.25;;;;;;;28.05;45.72;99654.27;1708784;84;21964;-81
2023/06/14 11:48:15;;;;;;;15.32;6.35;;;;;;;28.08;45.41;99648.84;1707751;84;21892;-81
2023/06/14 11:51:20;;;;;;;20.70;6.50;;;;;;;28.17;44.93;99654.02;1718181;83;21327;-82
2023/06/14 11:54:27;;;;;;;13.72;5.05;;;;;;;28.19;44.70;99649.52;1732637;82;21291;-84
2023/06/14 11:57:32;;;;;;;21.17;5.78;;;;;;;28.19;45.17;99654.56;1739085;82;21306;-82
2023/06/14 12:00:38;;;;;;;17.62;5.62;;;;;;;28.17;45.10;99648.39;1713497;84;21311;-82
2023/06/14 12:03:45;;;;;;;14.68;4.95;;;;;;;28.31;44.85;99656.03;1713094;84;21304;-82
2023/06/14 12:06:53;;;;;;;16.87;5.28;;;;;;;28.06;45.25;99653.13;1690680;84;21840;-82
2023/06/14 12:13:13;;;;;;;15.20;4.83;;;;;;;27.74;45.78;99641.55;1728286;83;21128;-82
2023/06/14 12:16:18;;;;;;;12.78;5.47;;;;;;;27.71;45.98;99639.38;1703779;83;21939;-82
2023/06/14 12:19:24;;;;;;;15.10;5.40;;;;;;;27.95;45.55;99645.45;1728773;83;21331;-82
2023/06/14 12:22:31;;;;;;;13.80;4.60;;;;;;;27.83;45.62;99647.89;1728865;83;21320;-84
2023/06/14 12:25:46;;;;;;;14.00;4.28;;;;;;;27.65;45.91;99650.37;1728526;83;21327;-82
2023/06/14 12:28:54;;;;;;;20.50;4.87;;;;;;;25.88;49.11;99649.44;1727603;83;21867;-81
2023/06/14 12:31:58;;;;;;;12.60;4.78;;;;;;;26.28;49.46;99643.73;1722394;83;21318;-81
2023/06/14 12:35:04;;;;;;;16.02;4.15;;;;;;;26.53;49.24;99644.88;1727447;83;21299;-84
2023/06/14 12:38:10;;;;;;;17.23;5.00;;;;;;;26.64;48.64;99644.20;1724319;82;21307;-84
2023/06/14 12:41:09;;;;;;;22.90;5.00;;;;;;;26.61;48.67;99642.82;1708511;84;21333;-82
2023/06/14 12:44:14;;;;;;;12.33;4.50;;;;;;;26.81;48.50;99639.49;1681062;85;21913;-82
2023/06/14 12:47:20;;;;;;;16.93;4.25;;;;;;;26.65;48.74;99638.29;1692939;85;21304;-81
2023/06/14 12:50:26;;;;;;;19.05;4.47;;;;;;;26.68;48.32;99634.90;1692227;85;21329;-82
2023/06/14 12:53:32;;;;;;;12.18;5.05;;;;;;;26.78;48.21;99628.89;1692231;83;21872;-81
2023/06/14 12:56:38;;;;;;;14.05;4.65;;;;;;;26.83;48.08;99628.83;1692658;85;21328;-82
2023/06/14 12:59:43;;;;;;;20.62;5.90;;;;;;;26.91;47.86;99626.73;1692208;85;21383;-81
2023/06/14 13:02:50;;;;;;;21.85;6.33;;;;;;;26.86;47.85;99619.78;1692394;85;21846;-84
2023/06/14 13:05:56;;;;;;;21.75;5.97;;;;;;;26.90;47.43;99616.65;1691976;85;21324;-84
2023/06/14 13:09:03;;;;;;;17.60;5.62;;;;;;;26.91;47.58;99616.91;1691284;85;21323;-82
2023/06/14 13:12:11;;;;;;;12.82;6.35;;;;;;;27.04;48.28;99621.78;1689801;85;21358;-85
2023/06/14 13:15:17;;;;;;;18.35;5.12;;;;;;;27.32;47.05;99617.77;1690768;85;21330;-85
2023/06/14 13:18:21;;;;;;;24.20;6.78;;;;;;;27.37;47.18;99613.48;1690795;85;21295;-82
2023/06/14 13:21:27;;;;;;;15.20;6.12;;;;;;;27.48;47.28;99613.03;1690268;85;21334;-82
2023/06/14 13:24:33;;;;;;;18.25;5.22;;;;;;;27.50;47.17;99618.33;1691486;83;21335;-84
2023/06/14 13:27:38;;;;;;;17.17;4.80;;;;;;;27.74;45.96;99620.48;1692662;85;21311;-82
2023/06/14 13:30:43;;;;;;;14.43;4.70;;;;;;;27.68;46.24;99618.88;1692186;85;21399;-82
2023/06/14 13:33:49;;;;;;;16.62;5.00;;;;;;;27.83;46.68;99611.36;1692332;85;21284;-84
2023/06/14 13:36:56;;;;;;;14.53;4.92;;;;;;;27.87;46.29;99620.84;1690916;84;21157;-81
2023/06/14 13:40:02;;;;;;;16.93;5.78;;;;;;;27.76;46.23;99625.81;1673180;85;21852;-81
2023/06/14 13:43:08;;;;;;;14.73;3.62;;;;;;;27.72;45.92;99628.40;1690976;85;21279;-81
2023/06/14 13:46:14;;;;;;;12.73;3.87;;;;;;;27.61;46.61;99635.27;1689783;85;21374;-82
2023/06/14 13:49:20;;;;;;;13.00;4.83;;;;;;;27.50;46.50;99640.80;1690639;85;21292;-82
2023/06/14 13:52:26;;;;;;;13.08;5.37;;;;;;;27.55;46.36;99630.89;1691061;85;21260;-84
2023/06/14 13:55:32;;;;;;;19.32;5.33;;;;;;;27.50;46.30;99633.20;1690234;85;21859;-81
2023/06/14 13:58:38;;;;;;;23.32;5.08;;;;;;;27.58;46.21;99628.88;1691217;85;21287;-84
2023/06/14 14:01:44;;;;;;;18.65;5.90;;;;;;;27.81;46.14;99616.44;1691302;85;21908;-84
2023/06/14 14:04:53;;;;;;;19.80;5.65;;;;;;;27.66;45.50;99612.72;1691510;85;21290;-81
2023/06/14 14:07:59;;;;;;;21.75;6.70;;;;;;;27.62;45.47;99608.88;1693960;83;21259;-84
2023/06/14 14:11:05;;;;;;;19.02;6.67;;;;;;;27.69;45.44;99604.26;1718793;83;21326;-81
2023/06/14 14:14:12;;;;;;;21.97;6.45;;;;;;;27.81;45.27;99608.01;1720092;83;21276;-84
2023/06/14 14:17:18;;;;;;;20.68;6.00;;;;;;;27.88;45.21;99611.27;1718693;83;21756;-84
2023/06/14 14:20:24;;;;;;;17.52;5.50;;;;;;;27.86;45.38;99604.56;1718649;83;21316;-84
2023/06/14 14:23:30;;;;;;;10.63;5.30;;;;;;;27.72;45.39;99605.92;1711284;83;21293;-84
2023/06/14 14:26:39;;;;;;;19.17;6.17;;;;;;;27.67;45.52;99601.77;1700477;83;21267;-84
2023/06/14 14:29:45;;;;;;;18.15;6.17;;;;;;;27.51;46.17;99603.14;1720203;83;21354;-83
2023/06/14 14:32:52;;;;;;;16.70;6.05;;;;;;;27.51;45.53;99610.16;1718903;83;21307;-82
2023/06/14 14:36:03;;;;;;;25.43;7.28;;;;;;;27.28;45.91;99612.49;1719567;83;21303;-81